Waasa, Minnesota
Current Conditions -  °F | °C
As of 8:12 PM on Saturday 22 Nov 2014 (Local Time) from KELO Reporting Station
Haze Haze  
Wind Chill: 25°   Ceiling: 700
Heat Index: 30°   Visibility: 5mi
Dew Point: 28°   Wind: 5mph
Humidity: 93%   Direction: 170°S
Pressure: 29.57"   Gusts: NA
Location:  47.691°N, 92.2161°W
Report Text: KELO 230212Z AUTO 17004KT 5SM BR OVC007 M01/M02 A2957 RMK AO2
Loading
Personal Weather Stations






























Interactive Weather Map New forecast layout! Learn more

10-Day Weather Forecast

Advertisements
Track Severe Weather on mobile